Sign in to follow this  
vector

Weather at EFKE

Recommended Posts

For several days now there has been no official aviation wx reports from EFKE Kemi-Tornio airport in Finland.  I have checked several aviation wx sites but they all say the same thing.  Does anyone have any idea what the problem might be?  I assume that ATIS works there but as I'm several hundred miles away from EFKE I can't check this out.

 

Dijvid

Share this post


Link to post
Share on other sites
Help AVSIM continue to serve you!
Please donate today!

Thanks for the replies and the report from Active Sky.  As a matter of interest when I use the ilmailus website it says "No data found" for METARs and TAFs!!  Oh well, ho-hum, etc!!!!

 

Dijvid

Share this post


Link to post
Share on other sites

Interesting - have you set "suomi" and "METAR" in the "saatiedaot" box?  This is what I see:

 

METAR EFET 081920Z AUTO 21013KT 9999 OVC016 01/M01 Q0977=

 

  •  

    METAR EFHA 081920Z AUTO 16008KT 120V210 9999 OVC006 02/01 Q0992=

     

  •  

    METAR EFHF 081920Z AUTO 17011KT 130V210 9999 OVC006 03/02 Q0996=

     

  •  

    METAR EFHK 081920Z 17016KT 9999 BKN004 02/02 Q0996 BECMG BKN005=

     

  •  

    METAR EFIV 081920Z AUTO 20015KT 170V230 9999 FEW015 BKN038 02/M01 Q0978=

     

  •  

    METAR EFJO 081920Z AUTO 19008KT 160V230 9999 -SG OVC003 00/00 Q0995=

     

  •  

    METAR EFJY 081920Z AUTO 15009KT 9999 OVC005 01/01 Q0992=

     

  •  

    METAR EFKE 081920Z AUTO 19012KT 9999 OVC008 02/01 Q0986=

     

  •  

    METAR EFKI 081920Z 18007KT 130V230 9999 OVC007 01/00 Q0991=

     

  •  

    METAR EFKK 081920Z 16013KT CAVOK 02/00 Q0987=

     

  •  

    METAR EFKS 081920Z AUTO 20010KT 170V240 9999 OVC009 01/00 Q0987=

     

  •  

    METAR EFKT 081920Z AUTO 20010KT 160V240 9999 OVC009 01/M01 Q0980=

     

  •  

    METAR EFKU 081920Z AUTO 18010KT 9999 OVC008 01/00 Q0994=

     

  •  

    METAR EFLP 081920Z AUTO 19007KT 140V230 1000 R06/P1500N R24/P1500N BR OVC001 01/01 Q0998=

     

  •  

    METAR EFMA 081920Z 17016KT 140V210 7000 -RA OVC008 04/03 Q0987=

     

  •  

    METAR EFMI 081920Z AUTO 19007KT 140V240 3800 BR OVC003 01/01 Q0996=

     

  •  

    METAR EFOU 081920Z AUTO 18009KT 150V210 9999 FEW037/// 02/00 Q0988 R12/29//95=

     

  •  

    METAR EFPO 081920Z AUTO 16013KT 9999 OVC013/// 04/02 Q0989 R12/29//95=

     

  •  

    METAR EFRO 081920Z AUTO 19019KT 9999 SCT006 BKN009 BKN012 01/00 Q0984=

     

  •  

    METAR EFSA 081920Z AUTO 19008KT 150V230 9999 OVC004 00/00 Q0997=

     

  •  

    METAR EFSI 081920Z AUTO 16009KT 100V220 9999 BKN015 03/01 Q0988=

     

  •  

    METAR EFTP 081920Z AUTO 17011KT 9999 FEW008 BKN010 BKN016 03/02 Q0992=

     

  •  

    METAR EFTU 081920Z AUTO 20012G24KT 150V260 9999 -UP OVC010/// 04/02 Q0991 R08/29//95=

     

  •  

    METAR EFUT 081920Z AUTO 17010KT 5000 OVC002 01/01 Q0997=

     

  •  

    METAR EFVA 081920Z AUTO 18017KT 9999 BKN017/// 03/01 Q0986 R16/29//95=

     

  •  

    METAR EFVR 081920Z AUTO 20005KT 110V280 9999 OVC005 01/00 Q0996=

     

    DJ

Share this post


Link to post
Share on other sites

OK, got it!  I had to select the "Weather on location" tab as I was initially set on the "Weather on flight route" tab.

 

Many thanks for your help.

 

Dijvid

Share this post


Link to post
Share on other sites

Create an account or sign in to comment

You need to be a member in order to leave a comment

Create an account

Sign up for a new account in our community. It's easy!

Register a new account

Sign in

Already have an account? Sign in here.

Sign In Now
Sign in to follow this